Fish Lake Valley, Nevada Weather observations

Data are for 10 minute period ending at time listed.
 Day   Time    Ave.   Ave.  Ave.  Vector   Max.   Stn.    Total    Solar   Ave.  
  of    of     Air    Rel.  Wind   Wind    Wind   Baro.  Precip.   Rad.    Soil  
Year   Day     Temp.  Hum.  Speed  Dir.    Gust   Pres.                    Temp. 
2014   (PST)    F      %     mph   deg.    mph     mb.     in.     W/m2     F    
--------------------------------------------------------------------------------- 
 106    8:00   57.3    30    3.7   323     12.9   850.0    0.00     421    56.6  
 106    9:00   61.1    23   12.4   303     16.8   850.0    0.00     626    56.1  
 106   10:00   63.6    21   11.8   304     19.0   850.0    0.00     788    55.9  
 106   11:00   65.4    20   14.0   306     22.3   850.0    0.00     901    56.0  
 106   12:00   67.7    18   14.9   304     21.1   849.0    0.00     949    56.4  
 106   13:00   69.7    18   14.7   311     22.3   848.0    0.00     929    57.1  
 106   14:00   71.4    18   13.2   312     22.8   848.0    0.00     850    58.0  
 106   15:00   72.3    18   10.5   316     18.1   847.0    0.00     737    59.1  
 106   16:00   72.5    17   11.8   314     19.5   847.0    0.00     548    60.2  
 106   17:00   71.0    19   11.3   318     18.7   847.0    0.00     347    61.2  
 106   18:00   66.6    22    9.5   322     16.0   847.0    0.00      89    62.1  
 106   19:00   64.0    20    9.5   290     14.4   848.0    0.00       5    62.8  
 106   20:00   62.8    19   11.2   292     18.5   848.0    0.00       0    63.1  
 106   21:00   60.6    21   10.9   288     16.2   849.0    0.00       0    63.0  
 106   22:00   58.4    23   12.1   289     16.6   850.0    0.00       0    62.7  
 106   23:00   51.9    33    5.4   338     14.2   850.0    0.00       0    62.2  
 107    0:00   49.1    37    4.9     1      7.9   850.0    0.00       0    61.8  
 107    1:00   47.9    37    6.5   319      8.7   850.0    0.00       0    61.2  
 107    2:00   43.8    42    3.8   266      6.6   850.0    0.00       0    60.6  
 107    3:00   41.1    48    3.3   166      7.1   850.0    0.00       0    59.9  
 107    4:00   35.3    64    3.8   156      6.2   850.0    0.00       0    59.3  
 107    5:00   31.7    78    4.1   131      5.7   850.0    0.00       0    58.6  
 107    6:00   34.1    69    5.0   149      8.2   850.0    0.00      37    57.9  
 107    7:00   41.9    63    4.8   120      8.1   851.0    0.00     234    57.2  

Return to Fish Lake Valley, Nevada graphs page.


Western Regional Climate Center,wrcc@dri.edu